createdAt,value
2018-09-13T00:01:24.759Z,92.95
2018-09-13T00:03:52.453Z,92.94
2018-09-13T00:06:20.161Z,92.47
2018-09-13T00:08:47.860Z,92.98
2018-09-13T00:11:15.526Z,92.78
2018-09-13T00:13:43.300Z,92.79
2018-09-13T00:16:11.003Z,92.52
2018-09-13T00:18:38.676Z,92.47
2018-09-13T00:21:06.733Z,92.56
2018-09-13T00:23:34.418Z,92.52
2018-09-13T00:26:02.095Z,92.49
2018-09-13T00:28:29.847Z,92.15
2018-09-13T00:30:57.792Z,92.12
2018-09-13T00:33:25.467Z,92.54
2018-09-13T00:35:53.277Z,92.79
2018-09-13T00:38:20.957Z,92.84
2018-09-13T00:40:48.629Z,92.54
2018-09-13T00:43:16.310Z,93.02
2018-09-13T00:45:44.014Z,92.98
2018-09-13T00:48:11.672Z,93.01
2018-09-13T00:50:39.440Z,93.14
2018-09-13T00:53:07.213Z,93.00
2018-09-13T00:55:34.868Z,92.93
2018-09-13T00:58:02.551Z,93.00
2018-09-13T01:00:30.236Z,93.02
2018-09-13T01:02:57.942Z,93.24
2018-09-13T01:05:25.664Z,93.14
2018-09-13T01:08:10.349Z,93.07
2018-09-13T01:10:38.133Z,93.18
2018-09-13T01:13:05.937Z,93.38
2018-09-13T01:15:33.722Z,93.44
2018-09-13T01:18:01.501Z,93.39
2018-09-13T01:20:29.293Z,93.61
2018-09-13T01:22:57.132Z,93.41
2018-09-13T01:25:24.896Z,93.38
2018-09-13T01:27:52.588Z,93.34
2018-09-13T01:30:20.339Z,93.61
2018-09-13T01:32:48.004Z,93.38
2018-09-13T01:35:15.765Z,93.27
2018-09-13T01:37:43.464Z,93.38
2018-09-13T01:40:11.159Z,93.21
2018-09-13T01:42:38.834Z,92.86
2018-09-13T01:45:06.572Z,93.12
2018-09-13T01:47:34.320Z,93.07
2018-09-13T01:50:01.984Z,93.07
2018-09-13T01:52:29.686Z,93.30
2018-09-13T01:54:57.372Z,93.46
2018-09-13T01:57:25.079Z,93.43
2018-09-13T01:59:52.765Z,93.74
2018-09-13T02:02:20.431Z,92.99
2018-09-13T02:04:48.132Z,93.10
2018-09-13T02:07:15.821Z,93.50
2018-09-13T02:09:43.502Z,92.79
2018-09-13T02:12:11.226Z,93.43
2018-09-13T02:14:38.908Z,93.28
2018-09-13T02:17:06.579Z,93.52
2018-09-13T02:19:34.543Z,93.33
2018-09-13T02:22:02.263Z,93.55
2018-09-13T02:24:29.955Z,93.50
2018-09-13T02:26:57.692Z,93.66
2018-09-13T02:29:25.367Z,93.35
2018-09-13T02:31:53.052Z,93.50
2018-09-13T02:34:20.749Z,93.69
2018-09-13T02:36:48.456Z,93.11
2018-09-13T02:39:16.145Z,93.16
2018-09-13T02:41:43.928Z,93.10
2018-09-13T02:44:11.641Z,93.06
2018-09-13T02:46:39.345Z,93.03
2018-09-13T02:49:07.134Z,92.96
2018-09-13T02:51:34.855Z,92.83
2018-09-13T02:54:02.607Z,92.89
2018-09-13T02:56:30.391Z,92.98
2018-09-13T02:58:58.105Z,93.05
2018-09-13T03:01:25.816Z,92.76
2018-09-13T03:03:53.513Z,92.79
2018-09-13T03:06:21.181Z,92.76
2018-09-13T03:08:48.862Z,92.61
2018-09-13T03:11:16.566Z,92.80
2018-09-13T03:13:44.257Z,92.20
2018-09-13T03:16:11.944Z,92.42
2018-09-13T03:18:39.648Z,92.52
2018-09-13T03:21:07.408Z,91.99
2018-09-13T03:23:35.169Z,92.14
2018-09-13T03:26:02.842Z,91.64
2018-09-13T03:28:30.604Z,91.73
2018-09-13T03:30:58.351Z,91.66
2018-09-13T03:33:26.154Z,91.83
2018-09-13T03:35:53.883Z,92.13
2018-09-13T03:38:21.556Z,92.10
2018-09-13T03:40:49.232Z,92.27
2018-09-13T03:43:17.144Z,92.00
2018-09-13T03:45:44.914Z,92.23
2018-09-13T03:48:12.597Z,92.21
2018-09-13T03:50:40.331Z,92.62
2018-09-13T03:53:08.017Z,92.71
2018-09-13T03:55:35.741Z,93.21
2018-09-13T03:58:03.431Z,93.07
2018-09-13T04:00:31.120Z,93.24
2018-09-13T04:02:58.842Z,93.01
2018-09-13T04:05:26.556Z,93.51
2018-09-13T04:07:54.260Z,93.56
2018-09-13T04:10:22.061Z,93.29
2018-09-13T04:12:49.934Z,93.73
2018-09-13T04:15:18.231Z,93.62
2018-09-13T04:17:45.935Z,93.43
2018-09-13T04:20:13.657Z,93.51
2018-09-13T04:22:41.415Z,93.25
2018-09-13T04:25:09.130Z,93.44
2018-09-13T04:27:36.816Z,93.42
2018-09-13T04:30:04.787Z,93.43
2018-09-13T04:32:32.465Z,93.58
2018-09-13T04:35:00.143Z,93.35
2018-09-13T04:37:27.911Z,93.94
2018-09-13T04:39:56.199Z,93.82
2018-09-13T04:42:23.904Z,94.07
2018-09-13T04:44:51.563Z,93.88
2018-09-13T04:47:19.240Z,94.10
2018-09-13T04:49:46.994Z,94.09
2018-09-13T04:52:14.756Z,94.12
2018-09-13T04:54:42.448Z,94.20
2018-09-13T04:57:10.195Z,94.13
2018-09-13T04:59:37.926Z,94.24
2018-09-13T05:02:05.651Z,94.27
2018-09-13T05:04:33.315Z,94.22
2018-09-13T05:07:01.014Z,94.14
2018-09-13T05:09:28.676Z,93.89
2018-09-13T05:11:56.516Z,94.03
2018-09-13T05:14:24.398Z,93.63
2018-09-13T05:16:52.251Z,93.10
2018-09-13T05:19:20.164Z,92.47
2018-09-13T05:21:48.000Z,91.60
2018-09-13T05:24:15.872Z,91.11
2018-09-13T05:26:43.811Z,89.24
2018-09-13T05:29:11.688Z,89.66
2018-09-13T05:31:39.610Z,88.89
2018-09-13T05:34:07.500Z,88.83
2018-09-13T05:36:35.738Z,87.81
2018-09-13T05:39:05.624Z,87.10
2018-09-13T05:41:33.540Z,86.60
2018-09-13T05:44:01.436Z,85.79
2018-09-13T05:46:29.355Z,85.36
2018-09-13T05:48:57.238Z,82.83
2018-09-13T05:51:25.120Z,80.11
2018-09-13T05:53:53.039Z,83.15
2018-09-13T05:56:20.904Z,82.89
2018-09-13T05:58:48.783Z,82.71
2018-09-13T06:01:16.772Z,80.91
2018-09-13T06:03:44.692Z,80.55
2018-09-13T06:06:12.541Z,81.67
2018-09-13T06:08:40.471Z,80.73
2018-09-13T06:11:08.405Z,77.75
2018-09-13T06:13:36.412Z,79.20
2018-09-13T06:16:04.318Z,78.27
2018-09-13T06:18:32.342Z,73.90
2018-09-13T06:21:00.289Z,76.03
2018-09-13T06:23:28.175Z,76.56
2018-09-13T06:25:56.044Z,74.33
2018-09-13T06:28:23.950Z,76.74
2018-09-13T06:30:52.033Z,74.90
2018-09-13T06:33:19.916Z,73.17
2018-09-13T06:35:47.822Z,75.54
2018-09-13T06:38:15.765Z,75.49
2018-09-13T06:40:43.607Z,72.17
2018-09-13T06:43:11.457Z,73.83
2018-09-13T06:45:39.373Z,74.69
2018-09-13T06:48:07.240Z,73.34
2018-09-13T06:50:35.156Z,72.61
2018-09-13T06:53:03.063Z,72.96
2018-09-13T06:55:30.973Z,70.74
2018-09-13T06:57:58.831Z,71.66
2018-09-13T07:00:26.700Z,71.34
2018-09-13T07:02:54.565Z,69.93
2018-09-13T07:05:22.661Z,70.52
2018-09-13T07:07:50.513Z,70.99
2018-09-13T07:10:18.433Z,70.59
2018-09-13T07:12:46.381Z,66.80
2018-09-13T07:15:14.263Z,67.85
2018-09-13T07:17:42.159Z,67.58
2018-09-13T07:20:10.050Z,67.70
2018-09-13T07:22:37.952Z,66.42
2018-09-13T07:25:05.929Z,66.01
2018-09-13T07:27:33.793Z,65.97
2018-09-13T07:30:01.700Z,64.50
2018-09-13T07:32:29.589Z,64.37
2018-09-13T07:34:57.509Z,65.20
2018-09-13T07:37:25.400Z,61.39
2018-09-13T07:39:53.336Z,61.47
2018-09-13T07:42:21.297Z,64.47
2018-09-13T07:44:49.312Z,58.34
2018-09-13T07:47:17.229Z,64.01
2018-09-13T07:49:45.245Z,61.26
2018-09-13T07:52:13.069Z,59.57
2018-09-13T07:54:41.008Z,59.99
2018-09-13T07:57:08.922Z,57.00
2018-09-13T07:59:36.833Z,61.40
2018-09-13T08:02:04.762Z,61.04
2018-09-13T08:04:32.729Z,61.64
2018-09-13T08:07:00.668Z,58.82
2018-09-13T08:09:28.556Z,58.94
2018-09-13T08:11:56.566Z,60.11
2018-09-13T08:14:24.462Z,60.04
2018-09-13T08:16:52.480Z,59.73
2018-09-13T08:19:20.377Z,58.08
2018-09-13T08:21:48.515Z,59.58
2018-09-13T08:24:16.331Z,59.36
2018-09-13T08:26:44.245Z,57.02
2018-09-13T08:29:12.239Z,58.41
2018-09-13T08:31:40.176Z,57.71
2018-09-13T08:34:08.091Z,58.37
2018-09-13T08:36:36.036Z,56.89
2018-09-13T08:39:05.992Z,57.15
2018-09-13T08:41:33.878Z,54.03
2018-09-13T08:44:01.799Z,56.80
2018-09-13T08:46:29.684Z,58.00
2018-09-13T08:48:57.614Z,57.34
2018-09-13T08:51:25.519Z,56.58
2018-09-13T08:53:53.499Z,55.96
2018-09-13T08:56:21.421Z,52.03
2018-09-13T08:58:49.527Z,54.91
2018-09-13T09:01:17.506Z,56.20
2018-09-13T09:03:45.445Z,54.73
2018-09-13T09:06:13.398Z,55.43
2018-09-13T09:08:41.347Z,55.18
2018-09-13T09:11:09.292Z,54.29
2018-09-13T09:13:37.321Z,54.62
2018-09-13T09:16:05.220Z,54.06
2018-09-13T09:18:33.196Z,54.06
2018-09-13T09:21:01.187Z,50.16
2018-09-13T09:23:29.112Z,52.24
2018-09-13T09:25:57.053Z,53.23
2018-09-13T09:28:25.052Z,53.34
2018-09-13T09:30:53.012Z,53.59
2018-09-13T09:33:20.948Z,50.79
2018-09-13T09:35:48.853Z,52.23
2018-09-13T09:38:16.792Z,51.78
2018-09-13T09:40:44.795Z,51.33
2018-09-13T09:43:12.716Z,51.73
2018-09-13T09:45:40.624Z,50.59
2018-09-13T09:48:08.744Z,49.83
2018-09-13T09:50:36.646Z,49.61
2018-09-13T09:53:04.597Z,51.51
2018-09-13T09:55:32.501Z,50.14
2018-09-13T09:58:00.539Z,50.09
2018-09-13T10:00:33.970Z,51.00
2018-09-13T10:03:01.914Z,49.39
2018-09-13T10:05:29.806Z,50.96
2018-09-13T10:07:57.705Z,52.00
2018-09-13T10:10:25.581Z,52.67
2018-09-13T10:12:53.550Z,48.23
2018-09-13T10:15:26.965Z,50.39
2018-09-13T10:19:03.273Z,47.91
2018-09-13T10:21:36.504Z,49.91
2018-09-13T10:24:09.853Z,50.80
2018-09-13T10:26:43.073Z,50.58
2018-09-13T10:29:16.533Z,51.23
2018-09-13T10:31:49.808Z,48.86
2018-09-13T10:34:23.270Z,49.29
2018-09-13T10:36:56.592Z,48.26
2018-09-13T10:39:29.999Z,48.35
2018-09-13T10:42:03.329Z,46.67
2018-09-13T10:44:36.947Z,47.46
2018-09-13T10:47:10.357Z,48.33
2018-09-13T10:49:43.895Z,48.26
2018-09-13T10:52:16.212Z,48.55
2018-09-13T10:54:44.216Z,46.07
2018-09-13T10:57:47.205Z,48.12
2018-09-13T11:00:15.309Z,47.69
2018-09-13T11:02:43.228Z,48.04
2018-09-13T11:05:11.135Z,48.22
2018-09-13T11:07:39.076Z,48.12
2018-09-13T11:10:07.116Z,48.20
2018-09-13T11:12:41.204Z,50.39
2018-09-13T11:15:20.433Z,51.40
2018-09-13T11:17:48.352Z,52.15
2018-09-13T11:20:16.328Z,52.25
2018-09-13T11:22:44.436Z,52.04
2018-09-13T11:25:12.316Z,51.48
2018-09-13T11:27:40.227Z,51.29
2018-09-13T11:30:08.247Z,51.45
2018-09-13T11:32:36.204Z,51.57
2018-09-13T11:35:04.136Z,50.46
2018-09-13T11:37:32.145Z,51.32
2018-09-13T11:40:00.140Z,50.41
2018-09-13T11:42:27.959Z,49.01
2018-09-13T11:44:55.900Z,49.72
2018-09-13T11:47:23.800Z,49.33
2018-09-13T11:49:51.724Z,49.91
2018-09-13T11:52:19.613Z,49.21
2018-09-13T11:54:47.547Z,49.20
2018-09-13T11:57:15.425Z,50.34
2018-09-13T11:59:43.372Z,48.24
2018-09-13T12:02:11.369Z,50.12
2018-09-13T12:04:39.304Z,50.04
2018-09-13T12:07:07.296Z,49.32
2018-09-13T12:09:35.181Z,50.29
2018-09-13T12:12:03.076Z,49.40
2018-09-13T12:14:31.186Z,49.40
2018-09-13T12:16:59.083Z,50.75
2018-09-13T12:19:27.043Z,51.00
2018-09-13T12:21:54.961Z,52.19
2018-09-13T12:24:22.891Z,49.42
2018-09-13T12:26:50.764Z,49.33
2018-09-13T12:29:18.723Z,49.62
2018-09-13T12:31:46.611Z,51.63
2018-09-13T12:34:14.547Z,48.27
2018-09-13T12:36:42.456Z,50.38
2018-09-13T12:39:11.740Z,49.52
2018-09-13T12:41:40.028Z,48.94
2018-09-13T12:44:08.436Z,49.33
2018-09-13T12:46:36.389Z,50.55
2018-09-13T12:49:04.432Z,50.25
2018-09-13T12:51:32.415Z,50.15
2018-09-13T12:54:00.743Z,50.40
2018-09-13T12:56:28.689Z,50.87
2018-09-13T12:58:56.632Z,51.22
2018-09-13T13:01:24.551Z,49.85
2018-09-13T13:03:52.432Z,49.96
2018-09-13T13:06:20.316Z,46.49
2018-09-13T13:08:48.375Z,47.86
2018-09-13T13:11:16.216Z,48.63
2018-09-13T13:13:44.097Z,50.44
2018-09-13T13:16:11.985Z,48.69
2018-09-13T13:18:39.947Z,51.22
2018-09-13T13:21:07.820Z,50.00
2018-09-13T13:23:35.704Z,47.65
2018-09-13T13:26:03.632Z,49.86
2018-09-13T13:28:31.517Z,49.36
2018-09-13T13:30:59.411Z,51.97
2018-09-13T13:33:27.340Z,52.36
2018-09-13T13:35:55.256Z,52.94
2018-09-13T13:38:23.134Z,53.14
2018-09-13T13:40:51.050Z,52.62
2018-09-13T13:43:18.936Z,54.38
2018-09-13T13:45:46.869Z,53.66
2018-09-13T13:48:14.917Z,53.86
2018-09-13T13:50:42.796Z,53.70
2018-09-13T13:53:10.707Z,55.40
2018-09-13T13:55:38.633Z,53.86
2018-09-13T13:58:06.538Z,54.11
2018-09-13T14:00:34.491Z,52.62
2018-09-13T14:03:02.391Z,54.42
2018-09-13T14:05:30.302Z,55.84
2018-09-13T14:07:58.238Z,53.02
2018-09-13T14:10:26.107Z,54.06
2018-09-13T14:12:53.991Z,53.80
2018-09-13T14:15:21.975Z,55.61
2018-09-13T14:17:49.874Z,54.79
2018-09-13T14:20:17.895Z,55.71
2018-09-13T14:22:45.864Z,56.70
2018-09-13T14:25:13.862Z,57.95
2018-09-13T14:27:41.875Z,57.73
2018-09-13T14:30:09.792Z,58.28
2018-09-13T14:32:37.703Z,57.32
2018-09-13T14:35:05.683Z,57.79
2018-09-13T14:37:33.570Z,57.46
2018-09-13T14:40:01.609Z,57.39
2018-09-13T14:42:29.458Z,59.15
2018-09-13T14:44:57.363Z,59.45
2018-09-13T14:47:25.309Z,58.83
2018-09-13T14:49:53.168Z,60.25
2018-09-13T14:52:21.136Z,60.29
2018-09-13T14:54:49.102Z,60.28
2018-09-13T14:57:17.427Z,60.66
2018-09-13T14:59:45.284Z,61.77
2018-09-13T15:02:13.177Z,60.63
2018-09-13T15:04:41.372Z,61.99
2018-09-13T15:07:09.308Z,60.92
2018-09-13T15:09:37.206Z,61.36
2018-09-13T15:12:05.129Z,61.93
2018-09-13T15:14:33.056Z,61.94
2018-09-13T15:17:00.923Z,60.80
2018-09-13T15:19:28.933Z,61.84
2018-09-13T15:21:56.788Z,63.13
2018-09-13T15:24:24.786Z,61.96
2018-09-13T15:26:52.605Z,63.19
2018-09-13T15:29:20.467Z,63.60
2018-09-13T15:31:48.353Z,64.00
2018-09-13T15:34:16.224Z,64.71
2018-09-13T15:36:44.254Z,65.06
2018-09-13T15:39:13.063Z,66.00
2018-09-13T15:41:41.024Z,66.02
2018-09-13T15:44:09.045Z,65.85
2018-09-13T15:46:36.916Z,66.03
2018-09-13T15:49:05.099Z,67.66
2018-09-13T15:51:32.988Z,66.51
2018-09-13T15:54:00.865Z,66.92
2018-09-13T15:56:28.776Z,67.58
2018-09-13T15:58:56.780Z,67.31
2018-09-13T16:01:24.691Z,67.27
2018-09-13T16:03:52.675Z,68.27
2018-09-13T16:06:20.527Z,68.74
2018-09-13T16:08:48.377Z,68.69
2018-09-13T16:11:16.283Z,69.45
2018-09-13T16:13:44.159Z,69.70
2018-09-13T16:16:12.084Z,70.16
2018-09-13T16:18:39.951Z,70.32
2018-09-13T16:21:08.189Z,70.54
2018-09-13T16:23:36.104Z,70.81
2018-09-13T16:26:04.312Z,71.59
2018-09-13T16:28:32.228Z,72.03
2018-09-13T16:31:00.138Z,71.75
2018-09-13T16:33:28.073Z,72.48
2018-09-13T16:35:58.984Z,72.86
2018-09-13T16:38:32.297Z,72.87
2018-09-13T16:41:07.398Z,73.27
2018-09-13T16:43:40.760Z,72.78
2018-09-13T16:46:09.408Z,73.38
2018-09-13T16:48:43.192Z,73.45
2018-09-13T16:51:11.477Z,73.68
2018-09-13T16:53:39.532Z,74.36
2018-09-13T16:56:07.997Z,74.71
2018-09-13T16:58:35.981Z,74.51
2018-09-13T17:01:03.993Z,74.88
2018-09-13T17:03:31.863Z,75.92
2018-09-13T17:05:59.762Z,76.50
2018-09-13T17:08:27.668Z,76.61
2018-09-13T17:10:55.567Z,77.05
2018-09-13T17:13:23.427Z,77.11
2018-09-13T17:15:51.298Z,77.35
2018-09-13T17:18:19.172Z,76.55
2018-09-13T17:20:46.995Z,77.27
2018-09-13T17:23:15.000Z,77.74
2018-09-13T17:25:42.916Z,78.40
2018-09-13T17:28:10.770Z,77.21
2018-09-13T17:30:38.468Z,78.00
2018-09-13T17:33:06.152Z,78.54
2018-09-13T17:35:33.841Z,78.42
2018-09-13T17:38:01.613Z,78.57
2018-09-13T17:40:29.344Z,78.75
2018-09-13T17:42:57.035Z,79.38
2018-09-13T17:45:24.842Z,78.76
2018-09-13T17:47:52.584Z,79.06
2018-09-13T17:50:20.424Z,79.69
2018-09-13T17:52:48.221Z,80.14
2018-09-13T17:55:16.044Z,80.46
2018-09-13T17:57:43.712Z,79.84
2018-09-13T18:00:12.953Z,80.40
2018-09-13T18:02:40.716Z,80.10
2018-09-13T18:05:08.835Z,80.25
2018-09-13T18:07:36.594Z,80.07
2018-09-13T18:10:04.793Z,80.44
2018-09-13T18:12:32.552Z,80.14
2018-09-13T18:15:00.322Z,80.67
2018-09-13T18:17:28.263Z,80.36
2018-09-13T18:19:56.024Z,80.62
2018-09-13T18:22:23.703Z,80.19
2018-09-13T18:24:51.440Z,80.87
2018-09-13T18:27:19.265Z,79.98
2018-09-13T18:29:46.979Z,79.60
2018-09-13T18:32:14.672Z,80.23
2018-09-13T18:34:42.967Z,79.95
2018-09-13T18:37:10.742Z,80.28
2018-09-13T18:39:39.440Z,80.98
2018-09-13T18:42:07.187Z,80.87
2018-09-13T18:44:34.897Z,80.65
2018-09-13T18:47:02.613Z,80.12
2018-09-13T18:49:30.445Z,80.77
2018-09-13T18:51:58.220Z,81.13
2018-09-13T18:54:25.960Z,81.11
2018-09-13T18:56:53.750Z,80.66
2018-09-13T18:59:21.507Z,81.46
2018-09-13T19:01:49.187Z,81.81
2018-09-13T19:04:16.903Z,82.04
2018-09-13T19:06:44.731Z,81.60
2018-09-13T19:09:12.413Z,81.40
2018-09-13T19:11:40.140Z,82.22
2018-09-13T19:14:07.850Z,81.89
2018-09-13T19:16:35.564Z,82.04
2018-09-13T19:19:03.351Z,82.20
2018-09-13T19:21:31.240Z,82.72
2018-09-13T19:23:58.953Z,82.99
2018-09-13T19:26:26.657Z,82.72
2018-09-13T19:28:54.392Z,82.23
2018-09-13T19:31:22.091Z,82.44
2018-09-13T19:33:49.804Z,82.72
2018-09-13T19:36:17.524Z,82.65
2018-09-13T19:38:45.337Z,83.84
2018-09-13T19:41:13.552Z,84.35
2018-09-13T19:43:41.305Z,84.47
2018-09-13T19:46:09.040Z,84.09
2018-09-13T19:48:36.722Z,84.06
2018-09-13T19:51:04.629Z,83.85
2018-09-13T19:53:32.254Z,85.15
2018-09-13T19:55:59.957Z,83.79
2018-09-13T19:58:27.628Z,84.22
2018-09-13T20:00:55.351Z,84.38
2018-09-13T20:03:23.101Z,84.37
2018-09-13T20:05:50.803Z,84.40
2018-09-13T20:08:18.588Z,84.53
2018-09-13T20:10:46.327Z,85.06
2018-09-13T20:13:13.987Z,84.92
2018-09-13T20:15:41.669Z,84.75
2018-09-13T20:18:09.565Z,84.64
2018-09-13T20:20:37.203Z,85.19
2018-09-13T20:23:04.916Z,85.50
2018-09-13T20:25:32.732Z,85.08
2018-09-13T20:28:00.425Z,85.41
2018-09-13T20:30:28.129Z,86.21
2018-09-13T20:32:55.943Z,87.17
2018-09-13T20:35:23.599Z,87.57
2018-09-13T20:37:51.365Z,86.52
2018-09-13T20:40:19.188Z,86.70
2018-09-13T20:42:46.892Z,86.41
2018-09-13T20:45:14.568Z,86.54
2018-09-13T20:47:42.251Z,86.48
2018-09-13T20:50:09.920Z,85.81
2018-09-13T20:52:37.609Z,85.35
2018-09-13T20:55:05.340Z,85.78
2018-09-13T20:57:33.048Z,85.43
2018-09-13T21:00:00.848Z,85.33
2018-09-13T21:02:28.580Z,85.27
2018-09-13T21:04:56.276Z,85.02
2018-09-13T21:07:24.004Z,84.72
2018-09-13T21:09:51.784Z,85.99
2018-09-13T21:12:19.483Z,85.88
2018-09-13T21:14:47.185Z,85.93
2018-09-13T21:17:15.031Z,85.56
2018-09-13T21:19:42.612Z,85.35
2018-09-13T21:22:10.885Z,85.17
2018-09-13T21:24:38.656Z,85.55
2018-09-13T21:27:06.399Z,85.43
2018-09-13T21:29:34.137Z,84.89
2018-09-13T21:32:01.937Z,86.25
2018-09-13T21:34:29.616Z,86.42
2018-09-13T21:36:58.012Z,86.53
2018-09-13T21:39:25.697Z,87.31
2018-09-13T21:41:53.384Z,87.79
2018-09-13T21:44:21.993Z,87.89
2018-09-13T21:46:49.664Z,87.07
2018-09-13T21:49:17.361Z,87.33
2018-09-13T21:51:45.167Z,87.33
2018-09-13T21:54:12.916Z,87.97
2018-09-13T21:56:40.652Z,87.15
2018-09-13T21:59:08.336Z,87.57
2018-09-13T22:01:36.028Z,87.72
2018-09-13T22:04:03.814Z,87.39
2018-09-13T22:06:31.549Z,86.33
2018-09-13T22:08:59.279Z,86.86
2018-09-13T22:11:27.129Z,87.26
2018-09-13T22:13:54.833Z,87.61
2018-09-13T22:16:22.516Z,87.92
2018-09-13T22:18:50.245Z,88.19
2018-09-13T22:21:18.026Z,88.12
2018-09-13T22:23:45.679Z,87.89
2018-09-13T22:26:13.399Z,87.89
2018-09-13T22:28:41.070Z,88.33
2018-09-13T22:31:08.795Z,87.92
2018-09-13T22:33:36.487Z,87.82
2018-09-13T22:36:04.185Z,87.24
2018-09-13T22:38:31.868Z,87.42
2018-09-13T22:40:59.546Z,87.11
2018-09-13T22:43:31.717Z,87.29
2018-09-13T22:45:59.416Z,87.30
2018-09-13T22:48:27.067Z,86.36
2018-09-13T22:50:54.778Z,87.60
2018-09-13T22:53:22.545Z,87.61
2018-09-13T22:55:50.219Z,87.29
2018-09-13T22:58:17.928Z,87.41
2018-09-13T23:00:45.675Z,87.85
2018-09-13T23:03:13.388Z,87.58
2018-09-13T23:05:41.077Z,88.08
2018-09-13T23:08:08.770Z,88.13
2018-09-13T23:10:36.581Z,88.07
2018-09-13T23:13:04.258Z,88.00
2018-09-13T23:15:32.092Z,86.95
2018-09-13T23:17:59.796Z,86.74
2018-09-13T23:20:27.484Z,87.26
2018-09-13T23:22:55.251Z,87.19
2018-09-13T23:25:22.909Z,87.68
2018-09-13T23:27:50.612Z,87.55
2018-09-13T23:30:18.292Z,87.44
2018-09-13T23:32:45.983Z,86.55
2018-09-13T23:35:13.708Z,86.59
2018-09-13T23:37:41.423Z,87.26
2018-09-13T23:40:09.280Z,87.52
2018-09-13T23:42:36.953Z,87.93
2018-09-13T23:45:05.185Z,87.95
2018-09-13T23:47:32.899Z,87.72
2018-09-13T23:50:00.577Z,87.56
2018-09-13T23:52:28.279Z,88.26
2018-09-13T23:54:56.140Z,88.45
2018-09-13T23:57:23.828Z,88.01
2018-09-13T23:59:51.519Z,87.75
